Time;durP1;ratioP1;P1;durP2;ratioP2;P2;SDS_P1;SDS_P2;PMS_P1;PMS_P2;Temp;Humidity;BMP_temperature;BMP_pressure;BME280_temperature;BME280_humidity;BME280_pressure;Samples;Min_cycle;Max_cycle;Signal;HPM_P1;HPM_P2
2022/11/11 00:01:35;;;;;;;;;67.25;52.50;;;;;14.76;74.69;100793.38;5027750;28;8843;-83
2022/11/11 00:04:22;;;;;;;;;63.00;49.50;;;;;14.49;75.86;100801.97;5029099;28;8873;-82
2022/11/11 00:07:09;;;;;;;;;64.75;51.75;;;;;14.94;73.72;100796.91;5037427;28;8994;-81
2022/11/11 00:09:57;;;;;;;;;61.00;50.00;;;;;14.19;77.13;100814.09;5040805;28;8870;-84
2022/11/11 00:12:44;;;;;;;;;60.75;50.00;;;;;14.26;76.68;100806.28;5038106;28;9017;-85
2022/11/11 00:15:37;;;;;;;;;67.00;52.00;;;;;14.28;77.18;100809.78;5035240;28;8867;-84
2022/11/11 00:27:40;;;;;;;;;69.50;55.00;;;;;13.72;79.84;100801.56;5031352;28;8889;-82
2022/11/11 00:30:27;;;;;;;;;66.50;53.25;;;;;13.44;81.10;100803.13;5036995;28;8855;-82
2022/11/11 00:33:16;;;;;;;;;67.00;52.50;;;;;13.50;80.56;100808.41;5036336;28;8934;-79
2022/11/11 00:36:04;;;;;;;;;67.25;53.25;;;;;13.44;81.16;100811.88;5036423;28;8922;-84
2022/11/11 00:38:54;;;;;;;;;65.50;52.75;;;;;13.44;81.26;100808.38;5027009;28;8877;-84
2022/11/11 00:41:41;;;;;;;;;68.50;54.50;;;;;13.45;81.75;100810.97;5041943;28;8856;-81
2022/11/11 00:44:29;;;;;;;;;66.50;54.25;;;;;13.20;81.50;100804.63;5037375;28;8852;-79
2022/11/11 00:53:34;;;;;;;;;67.25;52.00;;;;;13.41;80.74;100803.09;5035511;28;8849;-82
2022/11/11 00:56:22;;;;;;;;;67.50;51.75;;;;;13.22;82.34;100797.66;5051085;28;8964;-84
2022/11/11 00:59:09;;;;;;;;;66.00;52.75;;;;;13.09;82.48;100814.13;5035783;28;8876;-89
2022/11/11 01:01:57;;;;;;;;;61.75;50.50;;;;;13.22;81.78;100810.75;5032332;28;8843;-83
2022/11/11 01:04:44;;;;;;;;;59.00;46.75;;;;;13.35;81.22;100798.69;5032823;28;8857;-81
2022/11/11 01:07:33;;;;;;;;;65.50;53.50;;;;;13.44;81.03;100818.84;5033227;28;8845;-81
2022/11/11 01:13:24;;;;;;;;;60.50;48.75;;;;;13.09;82.58;100815.88;5037922;28;8841;-81
2022/11/11 01:16:15;;;;;;;;;59.75;50.00;;;;;13.33;81.38;100805.66;5037870;28;8900;-80
2022/11/11 01:19:03;;;;;;;;;65.00;50.00;;;;;13.33;81.54;100810.03;5029148;28;8873;-81
2022/11/11 01:21:50;;;;;;;;;66.00;51.75;;;;;13.40;80.75;100812.72;4999855;28;8872;-86
2022/11/11 01:24:39;;;;;;;;;58.50;49.00;;;;;13.45;80.27;100810.13;5010068;28;8844;-81
2022/11/11 01:27:26;;;;;;;;;61.75;50.00;;;;;13.49;80.22;100809.25;5026794;28;8871;-78
2022/11/11 01:30:14;;;;;;;;;65.25;50.25;;;;;13.44;79.75;100803.13;4983484;28;8881;-82
2022/11/11 01:33:03;;;;;;;;;61.75;46.50;;;;;13.36;80.58;100800.44;5004176;28;8848;-81
2022/11/11 01:35:51;;;;;;;;;34.25;32.00;;;;;13.37;80.92;100809.19;5035971;28;8845;-85
2022/11/11 01:38:41;;;;;;;;;61.25;48.50;;;;;13.56;79.90;100799.72;5046502;28;8936;-81
2022/11/11 01:41:35;;;;;;;;;60.50;49.25;;;;;13.17;81.24;100799.34;5030168;28;8889;-81
2022/11/11 01:44:41;;;;;;;;;63.50;50.50;;;;;13.15;81.30;100790.59;5030350;28;8830;-83
2022/11/11 01:49:17;;;;;;;;;61.67;47.67;;;;;13.25;81.22;100795.09;5012741;28;8957;-83
2022/11/11 01:50:57;;;;;;;;;62.75;49.75;;;;;13.35;80.74;100797.81;5026375;28;8852;-80
2022/11/11 01:53:49;;;;;;;;;57.25;48.75;;;;;13.47;80.54;100805.75;5030323;28;9606;-84
2022/11/11 01:56:39;;;;;;;;;60.50;48.50;;;;;13.46;80.45;100809.25;5030988;28;8967;-83
2022/11/11 01:59:28;;;;;;;;;60.50;49.50;;;;;13.22;80.73;100820.38;5030123;28;8890;-81
2022/11/11 02:02:21;;;;;;;;;57.00;47.50;;;;;13.00;82.88;100817.53;5030065;28;8851;-86
2022/11/11 02:08:31;;;;;;;;;52.75;44.75;;;;;13.09;82.00;100806.28;5029721;28;8859;-85
2022/11/11 02:14:38;;;;;;;;;60.75;46.75;;;;;13.06;82.60;100817.59;5029561;28;8946;-79
2022/11/11 02:17:30;;;;;;;;;56.75;47.00;;;;;13.18;81.25;100821.22;5036403;28;8870;-81
2022/11/11 02:20:20;;;;;;;;;53.50;44.50;;;;;13.03;82.25;100829.78;5042165;28;8860;-79
2022/11/11 02:23:14;;;;;;;;;58.00;46.25;;;;;13.13;82.09;100825.53;5042533;28;8940;-83
2022/11/11 02:26:05;;;;;;;;;52.50;44.50;;;;;13.03;82.00;100833.28;5039783;28;8880;-82
2022/11/11 02:28:54;;;;;;;;;57.00;47.75;;;;;13.03;81.96;100829.78;5034653;28;8859;-80
2022/11/11 02:31:41;;;;;;;;;57.00;46.50;;;;;12.90;82.69;100830.53;5031606;28;8879;-81
2022/11/11 02:34:31;;;;;;;;;60.25;46.75;;;;;12.99;81.27;100828.00;5031576;28;8859;-83
2022/11/11 02:37:21;;;;;;;;;60.50;47.00;;;;;12.96;82.36;100834.06;5030499;28;8884;-84
2022/11/11 02:40:11;;;;;;;;;52.50;42.25;;;;;12.82;82.05;100827.84;5030581;28;8921;-83
2022/11/11 02:43:00;;;;;;;;;55.25;44.25;;;;;12.72;82.53;100831.19;5031810;28;8932;-82
2022/11/11 02:45:47;;;;;;;;;55.00;42.00;;;;;12.73;82.73;100833.81;5029165;28;8941;-85
2022/11/11 02:48:35;;;;;;;;;58.00;48.75;;;;;12.65;83.10;100841.59;5030393;28;8882;-81
2022/11/11 02:51:23;;;;;;;;;57.75;48.25;;;;;12.72;82.74;100833.81;5029772;28;10070;-82
2022/11/11 02:54:10;;;;;;;;;53.75;41.75;;;;;12.62;83.00;100844.16;5029339;28;8848;-80
2022/11/11 02:57:07;;;;;;;;;56.75;47.75;;;;;12.80;82.17;100847.88;5030511;28;8851;-83
2022/11/11 02:59:59;;;;;;;;;58.25;47.50;;;;;13.01;81.15;100844.59;5044092;28;8904;-81
2022/11/11 03:02:46;;;;;;;;;55.00;43.75;;;;;12.85;80.85;100852.31;5014282;28;8866;-85
2022/11/11 03:05:34;;;;;;;;;49.00;41.75;;;;;12.83;81.07;100847.91;5009800;28;8858;-83
2022/11/11 03:08:22;;;;;;;;;56.25;46.25;;;;;12.93;80.94;100847.16;5011214;28;8865;-83
2022/11/11 03:11:09;;;;;;;;;54.00;43.50;;;;;12.96;80.25;100849.78;5012268;28;8881;-81
2022/11/11 03:13:58;;;;;;;;;55.25;44.75;;;;;13.07;80.08;100842.03;5013837;28;8919;-81
2022/11/11 03:21:03;;;;;;;;;56.00;45.75;;;;;13.09;79.80;100840.31;5014946;28;8885;-81
2022/11/11 03:23:02;;;;;;;;;52.50;44.50;;;;;13.09;79.50;100845.56;5026087;28;8993;-81
2022/11/11 03:25:49;;;;;;;;;52.50;40.75;;;;;13.10;79.31;100841.19;5032709;28;8881;-83
2022/11/11 03:28:43;;;;;;;;;53.75;44.25;;;;;13.10;78.83;100846.44;5029394;28;8974;-84
2022/11/11 03:31:31;;;;;;;;;52.00;41.75;;;;;13.20;78.78;100859.63;4988822;28;8859;-83
2022/11/11 03:34:19;;;;;;;;;57.50;43.75;;;;;13.18;78.50;100857.88;5029801;28;8868;-86
2022/11/11 03:40:13;;;;;;;;;55.25;46.00;;;;;13.13;78.69;100860.44;5028083;28;8868;-80
2022/11/11 03:43:02;;;;;;;;;44.75;39.25;;;;;12.96;78.99;100854.16;5029085;28;9006;-82
2022/11/11 03:45:52;;;;;;;;;52.50;43.50;;;;;13.01;79.55;100852.47;5035403;28;8895;-81
2022/11/11 03:48:40;;;;;;;;;49.50;43.50;;;;;13.14;78.48;100849.09;5006929;28;8871;-82
2022/11/11 03:51:29;;;;;;;;;51.50;42.25;;;;;13.40;77.13;100846.78;5035813;28;8868;-84
2022/11/11 03:54:16;;;;;;;;;54.00;43.50;;;;;13.50;76.51;100841.63;5035160;28;8863;-83
2022/11/11 04:00:10;;;;;;;;;48.75;40.75;;;;;12.99;78.74;100838.47;5033060;28;8867;-83
2022/11/11 04:12:24;;;;;;;;;49.25;40.75;;;;;13.04;78.21;100852.47;5038026;28;8871;-80
2022/11/11 04:18:17;;;;;;;;;52.00;42.00;;;;;12.90;78.42;100861.94;5034483;28;8893;-81
2022/11/11 04:27:16;;;;;;;;;51.50;44.00;;;;;12.67;79.25;100867.78;5010562;28;8858;-83
2022/11/11 04:30:03;;;;;;;;;51.50;42.25;;;;;12.73;78.78;100862.63;4996360;28;8874;-79
2022/11/11 04:32:50;;;;;;;;;52.75;44.00;;;;;12.99;77.67;100867.28;4997972;28;8978;-83
2022/11/11 04:35:37;;;;;;;;;53.25;44.00;;;;;12.74;78.63;100868.72;4997869;28;8850;-82
2022/11/11 04:41:29;;;;;;;;;51.00;43.50;;;;;12.71;78.03;100866.97;4995190;28;8881;-82
2022/11/11 04:47:56;;;;;;;;;53.25;43.75;;;;;12.53;79.04;100875.44;4994535;28;8858;-79
2022/11/11 04:50:44;;;;;;;;;52.75;42.00;;;;;12.55;78.12;100873.75;4997306;28;8854;-79
2022/11/11 04:53:32;;;;;;;;;53.00;42.25;;;;;12.44;78.87;100876.22;5027200;28;8870;-83
2022/11/11 04:59:24;;;;;;;;;49.75;37.75;;;;;12.61;78.11;100879.06;5026294;28;8920;-84
2022/11/11 05:05:17;;;;;;;;;55.00;46.00;;;;;12.24;78.48;100898.59;5035559;28;8954;-84
2022/11/11 05:11:10;;;;;;;;;50.00;40.75;;;;;12.70;76.69;100911.44;5038031;28;9001;-83
2022/11/11 05:23:18;;;;;;;;;55.00;44.00;;;;;12.61;77.51;100930.53;5049465;28;8842;-85
2022/11/11 05:26:05;;;;;;;;;43.50;38.50;;;;;12.76;76.93;100941.19;5033141;28;9067;-82
2022/11/11 05:28:52;;;;;;;;;58.75;46.75;;;;;12.55;77.93;100933.03;5049113;28;8854;-80
2022/11/11 05:31:39;;;;;;;;;57.50;45.25;;;;;12.38;77.86;100927.56;5033949;28;8897;-84
2022/11/11 05:34:27;;;;;;;;;56.00;45.00;;;;;12.24;78.92;100943.06;5029598;28;8861;-83
2022/11/11 05:37:17;;;;;;;;;55.25;45.25;;;;;12.42;77.71;100940.72;5008101;28;9645;-82
2022/11/11 05:40:05;;;;;;;;;57.00;44.50;;;;;12.43;77.56;100937.25;5007679;28;8915;-84
2022/11/11 05:42:53;;;;;;;;;55.25;45.25;;;;;12.36;77.58;100934.50;5027726;28;8845;-84
2022/11/11 05:45:41;;;;;;;;;48.75;41.00;;;;;12.10;79.00;100953.31;5027165;28;8987;-81
2022/11/11 05:48:28;;;;;;;;;53.25;44.00;;;;;12.16;78.91;100949.94;5030166;28;8862;-81
2022/11/11 05:51:26;;;;;;;;;51.00;43.00;;;;;12.02;79.50;100953.19;5051215;28;8862;-83
2022/11/11 05:54:16;;;;;;;;;59.00;45.75;;;;;12.29;77.77;100949.25;5049341;28;8881;-84
2022/11/11 05:57:04;;;;;;;;;49.00;41.75;;;;;12.24;78.34;100951.78;5044680;28;8866;-83
2022/11/11 05:59:51;;;;;;;;;53.50;45.00;;;;;12.46;77.12;100953.00;5037449;28;8894;-81
2022/11/11 06:02:39;;;;;;;;;50.00;42.75;;;;;12.62;76.46;100947.97;5069362;28;8877;-82
2022/11/11 06:05:28;;;;;;;;;56.50;47.75;;;;;12.82;75.15;100964.81;5023302;28;8854;-84
2022/11/11 06:08:15;;;;;;;;;50.75;43.00;;;;;12.84;75.11;100968.34;5023965;28;8920;-82
2022/11/11 06:11:06;;;;;;;;;34.00;32.50;;;;;12.73;75.40;100977.78;5023651;28;8899;-86
2022/11/11 06:13:55;;;;;;;;;53.50;44.00;;;;;12.86;75.13;100987.56;5023022;28;8905;-81
2022/11/11 06:16:42;;;;;;;;;52.75;42.25;;;;;13.10;74.40;100999.22;5025668;28;8843;-84
2022/11/11 06:19:30;;;;;;;;;54.50;42.50;;;;;12.91;74.64;101002.44;5027661;28;8878;-83
2022/11/11 06:22:54;;;;;;;;;55.25;41.25;;;;;12.88;74.81;100995.44;5029851;28;8952;-82
2022/11/11 06:28:32;;;;;;;;;58.25;45.50;;;;;13.09;74.71;101004.44;5040172;28;8886;-82
2022/11/11 06:31:22;;;;;;;;;60.75;49.50;;;;;13.37;73.27;101013.56;5049021;28;8870;-82
2022/11/11 06:34:09;;;;;;;;;53.75;41.50;;;;;12.99;74.72;101013.91;5030919;28;9053;-82
2022/11/11 06:36:56;;;;;;;;;53.25;43.25;;;;;13.03;74.55;101007.88;5044371;28;8850;-82
2022/11/11 06:39:44;;;;;;;;;54.50;44.75;;;;;13.55;72.48;101008.50;5037172;28;8964;-84
2022/11/11 06:42:36;;;;;;;;;0.00;0.00;;;;;14.03;70.43;101009.00;5005187;28;8892;-82
2022/11/11 06:45:27;;;;;;;;;53.75;44.00;;;;;13.73;71.15;101014.81;5008236;28;8871;-84
2022/11/11 06:48:15;;;;;;;;;54.00;43.50;;;;;13.82;70.44;101021.03;5030618;28;8868;-81
2022/11/11 06:51:03;;;;;;;;;56.00;45.50;;;;;13.97;69.20;101022.03;5013336;28;8872;-84
2022/11/11 06:53:51;;;;;;;;;57.25;45.50;;;;;13.70;70.44;101014.78;5013844;28;8872;-80
2022/11/11 06:56:38;;;;;;;;;57.75;46.75;;;;;13.82;69.26;101025.41;5028762;28;8911;-84
2022/11/11 06:59:26;;;;;;;;;56.00;46.75;;;;;13.49;70.70;101039.88;5011417;28;8897;-83
2022/11/11 07:02:15;;;;;;;;;51.75;42.50;;;;;13.27;72.35;101029.13;5018040;28;8856;-81
2022/11/11 07:05:02;;;;;;;;;54.75;44.00;;;;;13.12;72.06;101038.50;5007571;28;8905;-83
2022/11/11 07:07:50;;;;;;;;;53.50;42.50;;;;;13.20;72.34;101036.88;5009952;28;8870;-84
2022/11/11 07:10:40;;;;;;;;;52.00;40.00;;;;;12.50;74.30;101047.25;5016360;28;8952;-80
2022/11/11 07:13:27;;;;;;;;;61.00;47.50;;;;;12.42;75.01;101053.22;5006966;28;8878;-83
2022/11/11 07:16:15;;;;;;;;;62.75;49.00;;;;;12.00;76.36;101059.50;5012806;28;8858;-83
2022/11/11 07:19:03;;;;;;;;;63.75;49.25;;;;;11.98;76.65;101066.41;5000708;28;8858;-82
2022/11/11 07:21:51;;;;;;;;;64.75;50.50;;;;;12.17;76.14;101051.91;5012660;28;9056;-79
2022/11/11 07:24:38;;;;;;;;;65.50;52.00;;;;;12.04;76.09;101052.56;4996326;28;9163;-80
2022/11/11 07:27:25;;;;;;;;;57.25;45.75;;;;;12.12;76.34;101058.81;5007191;28;9096;-83
2022/11/11 07:30:13;;;;;;;;;58.00;45.50;;;;;12.28;76.05;101062.56;4974120;28;8860;-84
2022/11/11 07:33:00;;;;;;;;;53.25;43.75;;;;;12.41;75.45;101068.91;4989843;28;8940;-82
2022/11/11 07:35:49;;;;;;;;;56.75;43.50;;;;;12.29;75.68;101077.41;4971943;28;8874;-81
2022/11/11 07:38:36;;;;;;;;;59.25;49.25;;;;;12.21;75.90;101076.38;4985066;28;8848;-83
2022/11/11 07:41:23;;;;;;;;;57.00;47.75;;;;;12.32;75.23;101080.06;5007605;28;8878;-80
2022/11/11 07:44:10;;;;;;;;;54.25;44.25;;;;;12.24;76.19;101090.41;4991713;28;8866;-83
2022/11/11 07:46:57;;;;;;;;;55.25;47.25;;;;;12.73;74.59;101082.50;5000866;28;8885;-80
2022/11/11 07:49:44;;;;;;;;;62.50;49.25;;;;;12.95;72.69;101086.31;5003339;28;8913;-83
2022/11/11 07:52:33;;;;;;;;;51.75;43.75;;;;;13.16;72.07;101092.72;4996639;28;8984;-82
2022/11/11 07:55:20;;;;;;;;;54.00;45.50;;;;;13.64;70.29;101086.38;5007333;28;8842;-81
2022/11/11 07:58:08;;;;;;;;;54.25;45.00;;;;;14.17;68.73;101083.44;4992738;28;8908;-83
2022/11/11 08:00:59;;;;;;;;;59.25;48.25;;;;;14.39;67.34;101084.50;5018631;28;8881;-82
2022/11/11 08:03:53;;;;;;;;;57.00;44.75;;;;;14.47;66.55;101074.06;5029790;28;8906;-82
2022/11/11 08:06:41;;;;;;;;;55.75;44.75;;;;;14.49;66.12;101068.84;5054326;28;9731;-82
2022/11/11 08:09:30;;;;;;;;;56.75;45.75;;;;;14.72;65.40;101072.53;5059247;28;8958;-82
2022/11/11 08:15:22;;;;;;;;;53.50;44.50;;;;;14.23;66.16;101067.75;5050192;28;8951;-84
2022/11/11 08:18:10;;;;;;;;;52.75;43.25;;;;;14.73;64.92;101069.06;5040783;28;8882;-83
2022/11/11 08:20:58;;;;;;;;;50.50;40.25;;;;;14.97;64.32;101065.72;5034184;28;8909;-83
2022/11/11 08:23:46;;;;;;;;;53.50;43.75;;;;;15.04;63.80;101069.25;5036457;28;8842;-82
2022/11/11 08:26:57;;;;;;;;;56.00;44.00;;;;;15.35;63.05;101065.03;5040974;28;8928;-83
2022/11/11 08:29:44;;;;;;;;;46.00;39.00;;;;;15.36;62.68;101055.38;5040175;28;8857;-82
2022/11/11 08:32:32;;;;;;;;;57.50;46.00;;;;;15.59;62.50;101050.22;5029244;28;8962;-84
2022/11/11 08:35:19;;;;;;;;;50.50;39.00;;;;;15.53;62.54;101053.69;5047399;28;8936;-83
2022/11/11 08:38:06;;;;;;;;;56.00;47.50;;;;;15.44;62.65;101064.16;5031534;28;8965;-83
2022/11/11 08:40:54;;;;;;;;;55.75;44.00;;;;;14.36;65.90;101071.34;5026038;28;8851;-84
2022/11/11 08:43:43;;;;;;;;;53.75;44.00;;;;;14.83;64.62;101064.75;5029971;28;8878;-83
2022/11/11 08:46:31;;;;;;;;;52.50;41.25;;;;;14.94;64.42;101063.06;5009442;28;8869;-85
2022/11/11 08:49:18;;;;;;;;;51.25;43.25;;;;;15.36;63.48;101065.91;5009224;28;8878;-86
2022/11/11 08:52:06;;;;;;;;;50.75;42.75;;;;;15.58;62.09;101058.97;5010286;28;9679;-83
2022/11/11 08:54:53;;;;;;;;;56.50;44.25;;;;;15.58;61.71;101069.50;5026737;28;8851;-83
2022/11/11 08:57:41;;;;;;;;;37.00;35.00;;;;;14.51;64.62;101090.72;5023430;28;8830;-81
2022/11/11 09:00:29;;;;;;;;;51.50;43.00;;;;;14.45;65.41;101085.44;5010957;28;8980;-82
2022/11/11 09:03:17;;;;;;;;;54.50;43.75;;;;;14.18;66.68;101086.94;4999449;28;8862;-83
2022/11/11 09:06:04;;;;;;;;;52.00;43.25;;;;;14.21;66.45;101080.00;5019302;28;8888;-85
2022/11/11 09:08:52;;;;;;;;;48.25;40.75;;;;;14.94;64.38;101065.69;5033246;28;8862;-89
2022/11/11 09:11:40;;;;;;;;;57.00;45.50;;;;;14.47;64.47;101083.69;5036728;28;8859;-89
2022/11/11 09:14:48;;;;;;;;;48.25;40.00;;;;;13.78;66.74;101090.03;5018613;28;8870;-92
2022/11/11 09:17:38;;;;;;;;;52.25;40.75;;;;;13.38;68.62;101083.41;4992311;28;8856;-90
2022/11/11 09:20:28;;;;;;;;;49.25;41.50;;;;;13.56;68.19;101077.53;5018021;28;8864;-89
2022/11/11 09:23:17;;;;;;;;;56.00;46.25;;;;;13.58;68.22;101086.31;5002084;28;8843;-89
2022/11/11 09:26:10;;;;;;;;;50.25;39.75;;;;;14.40;65.13;101074.88;5005665;28;8853;-92
2022/11/11 09:28:59;;;;;;;;;42.00;38.75;;;;;14.73;64.06;101079.56;5036908;28;8853;-89
2022/11/11 09:31:49;;;;;;;;;40.75;35.00;;;;;14.52;64.36;101088.13;4966192;28;8842;-89
2022/11/11 09:35:02;;;;;;;;;53.00;44.25;;;;;14.17;65.87;101093.06;4952578;28;8854;-90
2022/11/11 09:37:55;;;;;;;;;46.00;38.50;;;;;14.42;65.32;101087.16;4979566;28;8885;-91
2022/11/11 09:41:03;;;;;;;;;51.75;39.50;;;;;14.93;64.06;101084.06;4980171;28;8865;-88
2022/11/11 09:43:54;;;;;;;;;44.50;37.75;;;;;14.80;63.48;101088.34;5015934;28;8858;-91
2022/11/11 09:46:55;;;;;;;;;52.25;41.50;;;;;14.42;65.29;101095.03;5014799;28;8881;-90
2022/11/11 09:50:06;;;;;;;;;54.75;43.75;;;;;14.11;67.39;101087.75;4999064;28;8930;-92
2022/11/11 09:53:01;;;;;;;;;54.00;43.50;;;;;14.85;64.51;101084.00;4932486;28;8874;-91
2022/11/11 09:55:58;;;;;;;;;55.50;44.75;;;;;14.74;65.06;101080.44;4957551;28;9042;-87
2022/11/11 09:58:51;;;;;;;;;54.75;45.75;;;;;15.35;62.65;101072.06;4936705;29;8891;-91
2022/11/11 10:01:45;;;;;;;;;55.25;43.00;;;;;15.28;61.80;101067.63;4918822;29;8847;-90
2022/11/11 10:04:42;;;;;;;;;55.00;45.75;;;;;14.92;63.20;101071.81;4923317;29;9006;-87
2022/11/11 10:07:37;;;;;;;;;52.50;42.75;;;;;14.49;65.28;101082.84;4951770;29;8914;-89
2022/11/11 10:10:38;;;;;;;;;47.25;39.50;;;;;14.35;66.02;101084.47;4937237;29;8888;-90
2022/11/11 10:13:30;;;;;;;;;53.00;44.25;;;;;14.42;66.10;101083.66;4938108;29;8926;-90
2022/11/11 10:16:34;;;;;;;;;55.25;43.25;;;;;14.85;64.29;101073.50;4950895;29;8943;-89
2022/11/11 10:19:58;;;;;;;;;55.50;44.75;;;;;14.95;64.56;101074.44;4908911;29;8882;-89
2022/11/11 10:23:15;;;;;;;;;50.50;42.25;;;;;14.84;65.35;101068.22;4891564;29;9868;-90
2022/11/11 10:26:15;;;;;;;;;52.25;41.50;;;;;14.61;65.81;101080.34;4918115;29;9070;-89
2022/11/11 10:29:25;;;;;;;;;51.50;40.25;;;;;14.50;66.39;101084.59;4916176;28;8864;-90
2022/11/11 10:32:23;;;;;;;;;56.00;44.75;;;;;14.72;65.15;101069.91;4994690;28;8890;-90
2022/11/11 10:35:17;;;;;;;;;50.25;41.00;;;;;14.45;65.68;101069.69;4998175;28;8842;-88
2022/11/11 10:38:23;;;;;;;;;50.25;41.75;;;;;14.41;66.09;101069.66;5019534;28;8877;-90
2022/11/11 10:41:38;;;;;;;;;56.75;45.25;;;;;14.75;65.20;101066.44;4999419;28;8968;-89
2022/11/11 10:44:28;;;;;;;;;51.25;43.00;;;;;15.58;62.88;101058.97;4995214;28;8882;-91
2022/11/11 10:47:25;;;;;;;;;53.25;44.50;;;;;15.79;61.49;101058.19;5014711;28;8898;-90
2022/11/11 10:50:21;;;;;;;;;59.50;47.00;;;;;14.90;64.21;101070.94;4990793;28;8936;-88
2022/11/11 10:53:16;;;;;;;;;59.75;47.75;;;;;14.64;65.83;101063.75;5040132;28;8856;-89
2022/11/11 10:56:34;;;;;;;;;54.25;45.25;;;;;14.74;65.34;101062.03;5004230;28;8862;-90
2022/11/11 10:59:26;;;;;;;;;62.25;47.50;;;;;14.91;65.54;101062.16;5009814;28;8858;-89
2022/11/11 11:02:21;;;;;;;;;60.25;47.25;;;;;15.33;63.69;101056.25;4978991;28;8896;-88
2022/11/11 11:05:14;;;;;;;;;59.75;48.00;;;;;15.48;63.22;101060.72;4991897;28;8953;-88
2022/11/11 11:08:14;;;;;;;;;57.75;47.25;;;;;15.52;62.98;101064.19;4992661;28;9591;-88
2022/11/11 11:11:08;;;;;;;;;63.00;50.50;;;;;16.04;60.97;101060.88;4993437;28;8989;-89
2022/11/11 11:14:02;;;;;;;;;60.00;46.50;;;;;15.79;62.15;101058.19;4990162;28;9245;-88
2022/11/11 11:16:54;;;;;;;;;62.75;51.25;;;;;15.30;63.14;101052.75;5037565;28;9686;-89
2022/11/11 11:20:15;;;;;;;;;64.00;51.75;;;;;15.18;63.84;101057.06;4992554;28;8845;-89
2022/11/11 11:23:06;;;;;;;;;61.50;49.00;;;;;15.74;62.73;101052.91;4997561;28;8860;-92
2022/11/11 11:25:57;;;;;;;;;61.00;48.00;;;;;16.38;60.45;101038.06;4997277;28;8849;-88
2022/11/11 11:28:58;;;;;;;;;60.25;49.25;;;;;16.41;59.53;101038.09;4994062;28;9101;-87
2022/11/11 11:31:47;;;;;;;;;56.25;45.50;;;;;16.55;59.39;101035.44;4979162;28;9107;-91
2022/11/11 11:34:47;;;;;;;;;53.50;46.00;;;;;15.62;62.39;101036.22;4984652;28;8883;-89
2022/11/11 11:37:49;;;;;;;;;57.25;48.25;;;;;15.00;65.06;101036.81;4956843;28;8897;-91
2022/11/11 11:40:48;;;;;;;;;62.00;49.50;;;;;15.13;65.15;101037.75;4971904;28;8883;-89
2022/11/11 11:43:41;;;;;;;;;63.75;50.75;;;;;14.91;65.75;101028.88;4975441;28;8892;-88
2022/11/11 11:46:37;;;;;;;;;57.50;45.25;;;;;15.32;64.51;101030.84;4995658;28;8853;-89
2022/11/11 11:50:03;;;;;;;;;56.25;47.75;;;;;14.88;65.43;101025.38;5003348;28;8989;-90
2022/11/11 11:53:02;;;;;;;;;64.50;50.25;;;;;14.89;66.35;101028.00;5068753;28;8868;-91
2022/11/11 11:55:58;;;;;;;;;60.50;47.50;;;;;14.68;66.69;101031.38;5042477;28;8855;-89
2022/11/11 11:58:58;;;;;;;;;59.75;48.25;;;;;14.94;66.55;101020.16;5033793;28;8840;-89
2022/11/11 12:01:57;;;;;;;;;68.00;54.50;;;;;15.15;64.88;101012.38;5032651;28;8958;-89
2022/11/11 12:05:13;;;;;;;;;61.50;50.50;;;;;15.38;64.28;101016.84;5046148;28;8864;-87
2022/11/11 12:08:15;;;;;;;;;62.00;49.75;;;;;15.03;66.30;101004.44;5054126;28;8897;-87
2022/11/11 12:11:12;;;;;;;;;58.50;47.50;;;;;14.94;65.48;101002.66;5000031;28;8840;-90
2022/11/11 12:14:27;;;;;;;;;57.75;48.75;;;;;14.80;66.33;101007.84;5047650;28;8894;-90
2022/11/11 12:17:28;;;;;;;;;65.50;51.25;;;;;14.95;66.13;100995.63;5051034;28;8891;-89
2022/11/11 12:20:24;;;;;;;;;57.50;48.00;;;;;15.06;65.54;100999.19;5042153;28;8926;-87
2022/11/11 12:23:36;;;;;;;;;56.50;46.50;;;;;14.76;66.88;100995.56;5021304;28;8863;-89
2022/11/11 12:26:35;;;;;;;;;62.25;48.50;;;;;14.93;66.14;100998.28;5012728;28;8913;-88
2022/11/11 12:29:38;;;;;;;;;57.75;46.50;;;;;15.24;64.87;100994.91;5018708;28;8875;-88
2022/11/11 12:33:01;;;;;;;;;59.75;47.00;;;;;15.19;65.68;100992.25;5022891;28;8879;-88
2022/11/11 12:36:01;;;;;;;;;66.25;51.50;;;;;15.28;65.41;100983.53;5023430;28;8848;-89
2022/11/11 12:38:58;;;;;;;;;65.25;50.25;;;;;14.85;66.58;100984.22;5019936;28;8856;-87
2022/11/11 12:42:03;;;;;;;;;58.50;47.75;;;;;14.82;66.88;100985.09;5031172;28;8874;-87
2022/11/11 12:45:22;;;;;;;;;62.75;49.00;;;;;15.19;65.84;100981.72;5033553;28;8983;-87
2022/11/11 12:48:28;;;;;;;;;64.75;50.25;;;;;15.13;65.76;100971.19;4995030;28;8994;-90
2022/11/11 12:51:30;;;;;;;;;60.00;49.75;;;;;15.21;65.68;100975.59;4966700;28;8860;-88
2022/11/11 12:54:31;;;;;;;;;60.75;48.25;;;;;15.49;64.67;100966.94;4977750;28;8913;-87
2022/11/11 12:57:26;;;;;;;;;65.00;50.25;;;;;15.77;63.66;100963.50;4961299;28;8858;-90
2022/11/11 13:00:20;;;;;;;;;58.25;48.25;;;;;15.79;62.86;100960.88;4975346;28;8957;-90
2022/11/11 13:03:27;;;;;;;;;64.75;48.75;;;;;16.23;62.08;100965.25;4974258;28;8896;-89
2022/11/11 13:06:33;;;;;;;;;63.50;49.00;;;;;16.13;61.44;100963.50;4986232;28;8904;-87
2022/11/11 13:09:46;;;;;;;;;58.00;47.00;;;;;16.96;60.39;100958.09;4998539;28;8858;-88
2022/11/11 13:12:41;;;;;;;;;57.00;46.75;;;;;16.42;61.42;100955.56;4940229;28;8997;-89
2022/11/11 13:15:31;;;;;;;;;54.00;44.00;;;;;16.68;59.92;100959.91;4940521;28;8993;-86
2022/11/11 13:18:23;;;;;;;;;59.25;48.00;;;;;16.65;59.88;100958.13;4939263;28;8889;-88
2022/11/11 13:21:16;;;;;;;;;56.75;45.75;;;;;16.46;60.74;100949.41;4940073;28;8894;-88
2022/11/11 13:24:05;;;;;;;;;63.50;47.50;;;;;16.74;59.81;100959.88;4954558;28;9001;-88
2022/11/11 13:26:57;;;;;;;;;53.75;46.25;;;;;17.24;58.10;100952.66;4960467;28;8986;-88
2022/11/11 13:30:18;;;;;;;;;42.50;37.50;;;;;16.83;58.99;100965.16;4977071;28;8897;-89
2022/11/11 13:33:12;;;;;;;;;52.25;43.00;;;;;17.23;58.52;100958.84;4903868;29;8849;-87
2022/11/11 13:36:04;;;;;;;;;54.50;43.25;;;;;17.18;57.51;100958.84;4916820;29;9031;-88
2022/11/11 13:38:55;;;;;;;;;56.75;46.00;;;;;16.88;58.87;100962.50;4917071;29;8857;-89
2022/11/11 13:41:49;;;;;;;;;54.00;45.25;;;;;16.53;59.65;100968.72;4896814;29;8942;-88
2022/11/11 13:44:50;;;;;;;;;52.25;41.75;;;;;16.38;60.26;100961.72;4890768;29;8882;-87
2022/11/11 13:47:47;;;;;;;;;50.75;42.50;;;;;16.54;59.88;100958.19;4867083;29;9020;-87
2022/11/11 13:50:39;;;;;;;;;54.00;43.50;;;;;16.32;60.43;100959.09;4935316;28;8885;-89
2022/11/11 13:53:48;;;;;;;;;51.00;42.50;;;;;16.00;61.10;100967.91;4974745;28;8871;-88
2022/11/11 13:56:39;;;;;;;;;49.50;40.50;;;;;15.93;61.60;100968.75;4974282;28;8890;-88
2022/11/11 13:59:29;;;;;;;;;39.50;33.25;;;;;16.10;60.93;100974.91;4956358;28;8937;-89
2022/11/11 14:02:31;;;;;;;;;53.50;44.50;;;;;16.50;59.46;100977.53;4955332;28;9046;-88
2022/11/11 14:05:24;;;;;;;;;55.50;45.50;;;;;17.02;57.05;100980.91;4956610;28;8886;-89
2022/11/11 14:08:52;;;;;;;;;47.00;38.50;;;;;16.30;58.88;100985.44;4963339;28;8851;-88
2022/11/11 14:11:42;;;;;;;;;49.25;40.75;;;;;16.59;58.33;100979.22;5049631;28;8917;-86
2022/11/11 14:14:56;;;;;;;;;46.50;40.50;;;;;17.00;57.13;100978.28;5043641;28;8868;-87
2022/11/11 14:18:49;;;;;;;;;43.00;36.75;;;;;16.85;57.10;100980.97;5056269;28;8877;-88
2022/11/11 14:21:50;;;;;;;;;48.50;40.75;;;;;16.61;57.80;100980.09;5018131;28;8879;-89
2022/11/11 14:24:47;;;;;;;;;42.25;37.50;;;;;16.29;58.78;100983.66;5019482;28;8938;-87
2022/11/11 14:27:35;;;;;;;;;46.50;40.75;;;;;16.64;58.11;100985.38;5021570;28;8871;-88
2022/11/11 14:30:39;;;;;;;;;50.00;40.00;;;;;16.73;57.57;100981.84;5033311;28;8836;-88
2022/11/11 14:33:49;;;;;;;;;54.75;44.50;;;;;16.88;56.89;100987.09;5014506;28;8878;-88
2022/11/11 14:36:44;;;;;;;;;46.75;37.50;;;;;17.23;56.36;100979.94;5016780;28;8878;-88
2022/11/11 14:39:39;;;;;;;;;45.75;38.00;;;;;17.54;55.23;100978.00;5003548;28;8885;-91
2022/11/11 14:42:48;;;;;;;;;46.75;39.00;;;;;17.67;54.04;100981.44;4981306;28;8854;-89